Time;durP1;ratioP1;P1;durP2;ratioP2;P2;SDS_P1;SDS_P2;PMS_P1;PMS_P2;Temp;Humidity;BMP_temperature;BMP_pressure;BME280_temperature;BME280_humidity;BME280_pressure;Samples;Min_cycle;Max_cycle;Signal;HPM_P1;HPM_P2
2022/08/22 00:00:38;;;;;;;1.72;1.30;;;;;;;15.81;100.00;97578.20;1765912;81;21875;-88
2022/08/22 00:03:39;;;;;;;3.70;1.67;;;;;;;15.81;100.00;97572.74;1745103;81;21005;-88
2022/08/22 00:06:23;;;;;;;6.37;1.42;;;;;;;15.83;100.00;97570.48;1766151;81;21072;-89
2022/08/22 00:08:57;;;;;;;5.53;1.02;;;;;;;15.80;100.00;97567.81;1753309;81;21023;-89
2022/08/22 00:11:54;;;;;;;3.70;1.40;;;;;;;15.82;100.00;97566.15;1728979;81;20990;-88
2022/08/22 00:14:38;;;;;;;3.52;1.05;;;;;;;15.83;100.00;97566.95;1753392;81;21178;-87
2022/08/22 00:17:25;;;;;;;7.75;1.45;;;;;;;15.82;100.00;97565.34;1758058;80;21422;-89
2022/08/22 00:19:56;;;;;;;2.27;1.30;;;;;;;15.79;100.00;97561.31;1735719;82;21033;-88
2022/08/22 00:22:30;;;;;;;3.87;1.17;;;;;;;15.76;100.00;97555.95;1735031;81;20951;-88
2022/08/22 00:25:06;;;;;;;4.08;1.35;;;;;;;15.78;100.00;97556.41;1700834;83;20995;-88
2022/08/22 00:27:39;;;;;;;3.37;1.72;;;;;;;15.78;100.00;97555.05;1737166;81;21932;-88
2022/08/22 00:30:10;;;;;;;2.22;1.65;;;;;;;15.76;100.00;97557.88;1746707;82;21010;-88
2022/08/22 00:32:49;;;;;;;5.60;1.40;;;;;;;15.70;100.00;97552.34;1751211;81;21458;-88
2022/08/22 00:35:30;;;;;;;3.65;1.82;;;;;;;15.67;100.00;97551.62;1745240;81;21002;-88
2022/08/22 00:38:23;;;;;;;2.77;1.90;;;;;;;15.70;100.00;97552.34;1736844;81;21026;-88
2022/08/22 00:41:13;;;;;;;5.95;2.25;;;;;;;15.70;100.00;97550.41;1737888;82;21140;-86
2022/08/22 00:43:51;;;;;;;8.58;2.37;;;;;;;15.66;100.00;97545.93;1764970;81;20915;-86
2022/08/22 00:46:40;;;;;;;6.22;1.98;;;;;;;15.69;100.00;97541.17;1766375;81;21006;-87
2022/08/22 00:49:39;;;;;;;3.65;2.20;;;;;;;15.71;100.00;97538.34;1741072;81;20967;-85
2022/08/22 00:52:28;;;;;;;2.87;2.40;;;;;;;15.73;100.00;97526.56;1737177;81;21048;-87
2022/08/22 00:55:15;;;;;;;4.62;1.57;;;;;;;15.75;100.00;97529.77;1716418;82;21162;-88
2022/08/22 00:58:03;;;;;;;2.87;1.80;;;;;;;15.74;100.00;97532.26;1742947;81;21454;-88
2022/08/22 01:00:33;;;;;;;3.70;1.90;;;;;;;15.75;100.00;97528.39;1744035;81;20983;-88
2022/08/22 01:03:22;;;;;;;3.62;1.62;;;;;;;15.80;100.00;97526.03;1758204;81;21048;-89
2022/08/22 01:06:03;;;;;;;4.42;3.05;;;;;;;15.82;100.00;97527.11;1765489;81;20985;-88
2022/08/22 01:09:05;;;;;;;4.42;2.87;;;;;;;15.81;100.00;97530.41;1754319;81;21124;-89
2022/08/22 01:11:53;;;;;;;3.42;2.17;;;;;;;15.82;100.00;97529.27;1777392;80;20967;-89
2022/08/22 01:14:42;;;;;;;2.40;1.87;;;;;;;15.85;100.00;97527.24;1757072;81;21398;-88
2022/08/22 01:17:20;;;;;;;4.75;1.62;;;;;;;15.86;100.00;97528.05;1765813;80;21241;-89
2022/08/22 01:20:20;;;;;;;2.35;1.85;;;;;;;15.86;100.00;97529.41;1725912;80;21065;-88
2022/08/22 01:23:14;;;;;;;4.92;1.62;;;;;;;15.84;100.00;97541.23;1751237;80;20999;-89
2022/08/22 01:25:58;;;;;;;2.20;1.55;;;;;;;15.82;100.00;97542.93;1741046;81;21006;-88
2022/08/22 01:28:52;;;;;;;2.92;2.00;;;;;;;15.83;100.00;97547.27;1736844;81;21431;-88
2022/08/22 01:31:43;;;;;;;4.15;2.20;;;;;;;15.80;100.00;97544.59;1740804;81;21101;-88
2022/08/22 01:34:42;;;;;;;4.25;1.80;;;;;;;15.81;100.00;97545.42;1739680;81;20971;-88
2022/08/22 01:37:55;;;;;;;3.15;2.12;;;;;;;15.82;100.00;97544.30;1723795;81;21329;-88
2022/08/22 01:41:05;;;;;;;3.12;1.72;;;;;;;15.78;100.00;97544.13;1735899;82;21418;-88
2022/08/22 01:43:55;;;;;;;2.40;1.80;;;;;;;15.77;100.00;97539.80;1739321;81;20971;-89
2022/08/22 01:46:53;;;;;;;3.92;1.70;;;;;;;15.77;100.00;97540.36;1741931;82;21042;-88
2022/08/22 01:49:27;;;;;;;2.55;1.40;;;;;;;15.75;100.00;97541.25;1757240;81;21420;-89
2022/08/22 01:52:15;;;;;;;4.15;2.02;;;;;;;15.76;100.00;97545.02;1751650;80;21111;-88
2022/08/22 01:54:55;;;;;;;5.03;1.57;;;;;;;15.76;100.00;97540.13;1745784;81;20948;-88
2022/08/22 01:57:23;;;;;;;2.10;1.20;;;;;;;15.72;100.00;97539.15;1741626;81;21014;-88
2022/08/22 01:59:56;;;;;;;3.00;1.75;;;;;;;15.70;100.00;97545.51;1741424;81;21471;-88
2022/08/22 02:02:49;;;;;;;1.75;1.32;;;;;;;15.69;100.00;97543.91;1750310;80;20895;-88
2022/08/22 02:05:30;;;;;;;4.97;1.60;;;;;;;15.68;100.00;97547.77;1735969;82;21131;-88
2022/08/22 02:08:25;;;;;;;2.45;1.35;;;;;;;15.66;100.00;97539.10;1751800;81;21037;-88
2022/08/22 02:11:07;;;;;;;3.12;1.35;;;;;;;15.71;100.00;97541.08;1774977;79;21033;-88
2022/08/22 02:13:59;;;;;;;1.50;1.02;;;;;;;15.75;100.00;97535.79;1752787;80;21513;-89
2022/08/22 02:16:36;;;;;;;2.10;1.42;;;;;;;15.80;100.00;97539.70;1725686;82;21024;-89
2022/08/22 02:19:10;;;;;;;3.62;1.80;;;;;;;15.80;100.00;97536.97;1756198;81;21058;-89
2022/08/22 02:22:06;;;;;;;4.60;2.20;;;;;;;15.80;100.00;97539.13;1763989;81;20989;-89
2022/08/22 02:24:46;;;;;;;6.12;1.75;;;;;;;15.81;100.00;97534.50;1740577;81;21470;-88
2022/08/22 02:27:53;;;;;;;5.92;1.62;;;;;;;15.81;100.00;97534.50;1739119;81;21113;-88
2022/08/22 02:30:46;;;;;;;1.77;1.22;;;;;;;15.83;100.00;97537.70;1720607;81;21063;-88
2022/08/22 02:33:24;;;;;;;3.67;1.47;;;;;;;15.82;100.00;97542.13;1742262;81;21043;-88
2022/08/22 02:36:04;;;;;;;2.72;1.30;;;;;;;15.82;100.00;97537.47;1742539;80;21022;-88
2022/08/22 02:38:35;;;;;;;4.62;1.50;;;;;;;15.84;100.00;97541.23;1763193;81;20942;-89
2022/08/22 02:41:21;;;;;;;5.22;1.80;;;;;;;15.83;100.00;97538.27;1765972;80;20978;-88
2022/08/22 02:43:52;;;;;;;4.72;1.25;;;;;;;15.84;100.00;97540.67;1751218;80;21014;-88
2022/08/22 02:46:55;;;;;;;2.17;1.10;;;;;;;15.88;100.00;97540.23;1741256;81;21973;-88
2022/08/22 02:49:26;;;;;;;2.98;1.50;;;;;;;15.87;100.00;97540.01;1719925;82;21032;-88
2022/08/22 02:52:23;;;;;;;3.12;1.57;;;;;;;15.89;100.00;97541.84;1762053;79;21279;-89
2022/08/22 02:55:00;;;;;;;3.90;1.77;;;;;;;15.87;100.00;97531.01;1742111;81;20955;-88
2022/08/22 02:57:43;;;;;;;2.95;1.85;;;;;;;15.85;100.00;97536.80;1753477;81;21077;-89
2022/08/22 03:00:17;;;;;;;4.00;1.70;;;;;;;15.84;100.00;97542.59;1720532;82;21119;-88
2022/08/22 03:03:07;;;;;;;3.08;1.70;;;;;;;15.83;100.00;97540.44;1707394;81;21053;-89
2022/08/22 03:05:42;;;;;;;6.25;1.70;;;;;;;15.81;100.00;97542.70;1719477;82;21067;-88
2022/08/22 03:08:19;;;;;;;2.80;1.87;;;;;;;15.83;100.00;97538.27;1749418;81;21018;-89
2022/08/22 03:11:00;;;;;;;10.05;1.98;;;;;;;15.83;100.00;97532.23;1755913;80;21394;-88
2022/08/22 03:14:06;;;;;;;3.20;1.65;;;;;;;15.87;100.00;97536.47;1736776;81;21049;-89
2022/08/22 03:17:01;;;;;;;4.25;1.62;;;;;;;15.86;100.00;97532.14;1740526;82;20904;-87
2022/08/22 03:19:51;;;;;;;3.25;1.60;;;;;;;15.87;100.00;97536.47;1743798;81;21045;-89
2022/08/22 03:22:45;;;;;;;5.87;1.20;;;;;;;15.91;100.00;97531.98;1755017;81;20989;-89
2022/08/22 03:25:31;;;;;;;1.82;1.15;;;;;;;15.91;100.00;97537.44;1741138;82;21029;-89
2022/08/22 03:28:08;;;;;;;2.02;1.57;;;;;;;15.89;100.00;97539.11;1754505;81;21112;-89
2022/08/22 03:30:57;;;;;;;4.50;1.80;;;;;;;15.89;100.00;97541.84;1756771;80;21391;-89
2022/08/22 03:33:28;;;;;;;5.55;1.30;;;;;;;15.89;100.00;97543.77;1757550;80;21393;-89
2022/08/22 03:36:14;;;;;;;4.80;1.47;;;;;;;15.90;100.00;97540.73;1771659;80;20969;-89
2022/08/22 03:39:07;;;;;;;4.50;1.37;;;;;;;15.91;100.00;97540.97;1769526;79;21465;-88
2022/08/22 03:42:04;;;;;;;1.45;1.10;;;;;;;15.91;100.00;97538.24;1771059;80;21778;-89
2022/08/22 03:44:39;;;;;;;5.75;1.70;;;;;;;15.91;100.00;97543.70;1753660;80;21002;-89
2022/08/22 03:47:14;;;;;;;2.80;1.70;;;;;;;15.91;100.00;97543.70;1749403;80;20957;-89
2022/08/22 03:50:06;;;;;;;3.92;2.22;;;;;;;15.90;100.00;97548.14;1739773;80;20975;-89
2022/08/22 03:53:21;;;;;;;4.20;2.00;;;;;;;15.90;100.00;97543.47;1755851;80;20971;-89
2022/08/22 03:56:37;;;;;;;4.67;2.20;;;;;;;15.92;100.00;97541.78;1765874;80;21168;-89
2022/08/22 03:59:31;;;;;;;5.78;2.05;;;;;;;15.92;100.00;97548.05;1763296;80;21013;-89
2022/08/22 04:02:22;;;;;;;2.87;1.87;;;;;;;15.91;100.00;97545.64;1759585;80;21061;-89
2022/08/22 04:05:15;;;;;;;3.33;1.85;;;;;;;15.94;100.00;97546.34;1764322;81;21439;-89
2022/08/22 04:08:05;;;;;;;6.03;1.72;;;;;;;15.98;100.00;97546.75;1748391;80;21402;-89
2022/08/22 04:11:15;;;;;;;2.35;1.55;;;;;;;15.97;100.00;97543.75;1731517;81;21068;-89
2022/08/22 04:13:58;;;;;;;3.72;1.70;;;;;;;15.97;100.00;97556.05;1752189;80;20959;-89
2022/08/22 04:16:42;;;;;;;5.92;1.52;;;;;;;16.01;100.00;97563.05;1741069;81;20987;-89
2022/08/22 04:19:42;;;;;;;7.20;2.10;;;;;;;15.99;100.00;97567.47;1739889;81;21003;-89
2022/08/22 04:22:22;;;;;;;4.37;2.05;;;;;;;16.03;100.00;97566.25;1737392;81;21087;-89
2022/08/22 04:25:02;;;;;;;5.08;1.60;;;;;;;16.02;100.00;97563.28;1745354;81;21123;-89
2022/08/22 04:27:42;;;;;;;4.33;1.67;;;;;;;16.01;100.00;97569.87;1754400;81;21045;-89
2022/08/22 04:30:30;;;;;;;6.78;2.20;;;;;;;16.01;100.00;97569.31;1743077;81;21038;-89
2022/08/22 04:33:07;;;;;;;4.78;1.82;;;;;;;16.01;100.00;97566.58;1734739;81;21011;-89
2022/08/22 04:35:58;;;;;;;6.17;1.45;;;;;;;16.02;100.00;97564.08;1740396;81;21062;-90
2022/08/22 04:38:41;;;;;;;5.65;1.75;;;;;;;16.05;100.00;97558.52;1733397;81;21873;-88
2022/08/22 04:41:25;;;;;;;3.55;1.90;;;;;;;16.02;100.00;97565.45;1720834;82;21019;-89
2022/08/22 04:43:56;;;;;;;3.35;1.82;;;;;;;16.04;100.00;97571.38;1715580;83;20999;-89
2022/08/22 04:46:33;;;;;;;5.00;2.50;;;;;;;16.04;100.00;97574.68;1694322;84;20935;-89
2022/08/22 04:49:13;;;;;;;3.98;2.12;;;;;;;16.06;100.00;97566.95;1759560;80;21485;-89
2022/08/22 04:51:53;;;;;;;3.80;2.37;;;;;;;16.10;100.00;97567.12;1762818;80;21136;-89
2022/08/22 04:54:57;;;;;;;3.08;1.67;;;;;;;16.14;100.00;97569.42;1742810;81;20975;-89
2022/08/22 04:57:40;;;;;;;5.30;2.20;;;;;;;16.14;100.00;97570.22;1748316;81;20966;-90
2022/08/22 05:00:08;;;;;;;4.92;1.80;;;;;;;16.16;100.00;97578.92;1726594;81;21045;-89
2022/08/22 05:02:36;;;;;;;4.42;1.80;;;;;;;16.17;100.00;97581.89;1733383;80;20958;-89
2022/08/22 05:05:07;;;;;;;3.33;1.62;;;;;;;16.18;100.00;97581.33;1732876;81;21137;-89
2022/08/22 05:07:36;;;;;;;3.08;1.70;;;;;;;16.19;100.00;97581.55;1753349;81;20981;-89
2022/08/22 05:10:23;;;;;;;5.83;1.55;;;;;;;16.22;100.00;97586.36;1744419;79;21065;-89
2022/08/22 05:12:56;;;;;;;4.67;1.80;;;;;;;16.24;100.00;97582.76;1723166;81;21023;-89
2022/08/22 05:15:33;;;;;;;4.92;1.85;;;;;;;16.26;100.00;97582.66;1727426;82;20910;-89
2022/08/22 05:18:05;;;;;;;5.70;1.47;;;;;;;16.27;100.00;97584.83;1753878;81;21108;-89
2022/08/22 05:20:31;;;;;;;3.95;1.50;;;;;;;16.30;100.00;97586.33;1762024;81;20974;-89
2022/08/22 05:23:01;;;;;;;3.52;1.60;;;;;;;16.31;100.00;97589.30;1734321;81;21027;-88
2022/08/22 05:25:31;;;;;;;2.37;1.27;;;;;;;16.31;100.00;97593.97;1738767;81;21072;-89
2022/08/22 05:28:14;;;;;;;2.08;1.32;;;;;;;16.28;100.00;97585.06;1743571;80;21004;-89
2022/08/22 05:30:40;;;;;;;5.10;1.60;;;;;;;16.24;100.00;97584.13;1715654;83;21128;-89
2022/08/22 05:33:33;;;;;;;4.47;1.40;;;;;;;16.30;100.00;97584.16;1696831;81;20986;-89
2022/08/22 05:36:13;;;;;;;5.03;1.67;;;;;;;16.35;100.00;97587.53;1772027;80;21001;-89
2022/08/22 05:38:56;;;;;;;5.08;1.72;;;;;;;16.37;100.00;97592.66;1728136;81;21044;-89
2022/08/22 05:41:24;;;;;;;2.17;1.40;;;;;;;16.38;100.00;97592.09;1748267;81;21044;-90
2022/08/22 05:43:50;;;;;;;;;;;;;;;16.41;100.00;97596.36;1758111;81;20989;-90
2022/08/22 05:46:28;;;;;;;4.58;1.95;;;;;;;16.39;100.00;97595.87;1673929;82;20213;-90
2022/08/22 05:48:58;;;;;;;4.00;1.72;;;;;;;16.41;100.00;97600.47;1752601;81;21009;-90
2022/08/22 05:51:30;;;;;;;4.70;1.70;;;;;;;16.47;100.00;97600.50;1756517;80;21075;-88
2022/08/22 05:54:04;;;;;;;4.03;2.20;;;;;;;16.51;100.00;97602.83;1749931;81;21076;-90
2022/08/22 05:56:44;;;;;;;6.05;2.40;;;;;;;16.53;100.00;97611.50;1732366;81;39963;-88
2022/08/22 05:59:32;;;;;;;5.72;2.20;;;;;;;16.61;100.00;97615.34;1755929;80;21001;-89
2022/08/22 06:02:15;;;;;;;4.85;2.52;;;;;;;16.58;100.00;97617.38;1713306;82;21507;-89
2022/08/22 06:04:50;;;;;;;8.68;2.55;;;;;;;16.59;100.00;97617.04;1754807;80;21025;-89
2022/08/22 06:07:31;;;;;;;5.53;2.40;;;;;;;16.60;100.00;97617.27;1756304;80;21012;-89
2022/08/22 06:10:26;;;;;;;5.35;2.35;;;;;;;16.62;100.00;97615.00;1757219;80;20969;-89
2022/08/22 06:13:19;;;;;;;8.15;3.40;;;;;;;16.63;100.00;97617.97;1749876;81;21461;-89
2022/08/22 06:16:12;;;;;;;5.35;2.75;;;;;;;16.64;100.00;97618.20;1748512;80;21490;-89
2022/08/22 06:18:39;;;;;;;7.60;3.50;;;;;;;16.64;100.00;97619.57;1692793;81;21029;-89
2022/08/22 06:21:19;;;;;;;8.43;3.10;;;;;;;16.61;100.00;97618.88;1738576;79;21003;-89
2022/08/22 06:23:53;;;;;;;8.50;3.05;;;;;;;16.63;100.00;97617.97;1758981;79;21109;-89
2022/08/22 06:26:19;;;;;;;9.08;3.98;;;;;;;16.60;100.00;97618.64;1745185;79;20989;-89
2022/08/22 06:28:50;;;;;;;6.97;2.83;;;;;;;16.64;100.00;97618.77;1723161;81;20902;-89
2022/08/22 06:31:30;;;;;;;9.30;4.00;;;;;;;16.69;100.00;97611.80;1716819;82;20972;-89
2022/08/22 06:34:25;;;;;;;11.00;4.00;;;;;;;16.75;100.00;97616.49;1685008;84;21493;-90
2022/08/22 06:36:51;;;;;;;8.85;3.62;;;;;;;16.82;100.00;97615.41;1684093;83;21127;-90
2022/08/22 06:39:33;;;;;;;13.05;3.27;;;;;;;16.84;100.00;97617.28;1681908;83;21109;-90
2022/08/22 06:42:10;;;;;;;12.68;3.67;;;;;;;16.88;100.00;97616.84;1677833;83;21067;-89
2022/08/22 06:45:10;;;;;;;6.92;2.75;;;;;;;16.91;100.00;97625.75;1690997;83;21140;-89
2022/08/22 06:47:43;;;;;;;6.53;2.80;;;;;;;16.91;100.00;97625.18;1698592;83;21127;-90
2022/08/22 06:50:13;;;;;;;7.90;3.05;;;;;;;16.93;100.00;97626.24;1698911;83;21179;-90
2022/08/22 06:53:05;;;;;;;11.60;2.92;;;;;;;16.90;100.00;97633.73;1690313;83;21095;-90
2022/08/22 06:55:31;;;;;;;7.45;3.00;;;;;;;16.88;100.00;97626.42;1694732;83;20973;-89
2022/08/22 06:58:17;;;;;;;9.23;3.10;;;;;;;16.89;100.00;97625.28;1737948;81;21043;-89
2022/08/22 07:00:43;;;;;;;9.60;3.33;;;;;;;16.93;100.00;97626.24;1748938;81;20989;-89
2022/08/22 07:03:27;;;;;;;7.42;2.98;;;;;;;16.94;100.00;97631.95;1729441;81;21144;-90
2022/08/22 07:05:54;;;;;;;9.70;3.52;;;;;;;16.91;100.00;97633.39;1749618;81;21026;-89
2022/08/22 07:08:22;;;;;;;7.37;3.08;;;;;;;16.91;100.00;97631.22;1747440;81;21429;-89
2022/08/22 07:10:57;;;;;;;8.50;3.17;;;;;;;16.91;100.00;97633.39;1744116;80;21072;-89
2022/08/22 07:13:24;;;;;;;10.20;3.50;;;;;;;16.93;100.00;97627.61;1736107;80;21527;-89
2022/08/22 07:15:54;;;;;;;12.07;3.55;;;;;;;16.92;100.00;97635.59;1748769;81;21253;-89
2022/08/22 07:18:23;;;;;;;8.25;3.40;;;;;;;16.91;100.00;97625.18;1730501;82;21129;-88
2022/08/22 07:20:55;;;;;;;7.60;3.27;;;;;;;16.94;100.00;97629.21;1747585;81;21010;-87
2022/08/22 07:23:39;;;;;;;8.78;4.12;;;;;;;17.00;100.00;97622.39;1739996;81;21080;-88
2022/08/22 07:26:29;;;;;;;16.50;4.45;;;;;;;17.03;100.00;97620.95;1740928;81;21041;-89
2022/08/22 07:29:09;;;;;;;7.33;3.50;;;;;;;17.05;100.00;97611.27;1736050;80;21063;-89
2022/08/22 07:31:47;;;;;;;11.70;5.45;;;;;;;17.08;100.00;97622.91;1748434;81;21009;-89
2022/08/22 07:34:43;;;;;;;10.88;6.25;;;;;;;17.11;100.00;97620.09;1694444;82;21017;-90
2022/08/22 07:37:46;;;;;;;18.73;8.18;;;;;;;17.13;100.00;97618.62;1690437;84;21170;-89
2022/08/22 07:40:36;;;;;;;19.85;10.10;;;;;;;17.16;100.00;97617.15;1740321;80;20959;-90
2022/08/22 07:43:25;;;;;;;22.35;9.90;;;;;;;17.20;100.00;97625.75;1725988;81;21573;-90
2022/08/22 07:46:35;;;;;;;20.48;9.93;;;;;;;17.23;100.00;97632.48;1744444;81;21536;-89
2022/08/22 07:49:22;;;;;;;19.80;9.68;;;;;;;17.22;100.00;97639.67;1754397;80;21763;-89
2022/08/22 07:51:54;;;;;;;15.45;8.55;;;;;;;17.23;100.00;97635.80;1756446;79;21553;-89
2022/08/22 07:54:38;;;;;;;19.23;10.45;;;;;;;17.24;100.00;97638.20;1722136;82;21086;-89
2022/08/22 07:57:08;;;;;;;18.52;11.53;;;;;;;17.22;100.00;97645.14;1687988;82;21146;-88
2022/08/22 07:59:36;;;;;;;21.10;12.23;;;;;;;17.16;100.00;97639.05;1754110;80;21033;-89
2022/08/22 08:02:06;;;;;;;23.22;12.70;;;;;;;17.18;100.00;97647.19;1753866;81;21049;-89
2022/08/22 08:04:34;;;;;;;24.65;12.47;;;;;;;17.22;100.00;97642.41;1742074;80;20999;-90
2022/08/22 08:07:02;;;;;;;28.55;14.58;;;;;;;17.18;100.00;97646.39;1750244;80;21107;-89
2022/08/22 08:09:32;;;;;;;31.17;14.10;;;;;;;17.15;100.00;97646.46;1711698;80;21135;-90
2022/08/22 08:11:59;;;;;;;31.70;14.68;;;;;;;17.17;100.00;97644.76;1755277;81;21009;-88
2022/08/22 08:14:26;;;;;;;23.50;12.80;;;;;;;17.16;100.00;97640.42;1757733;80;21520;-88
2022/08/22 08:17:16;;;;;;;26.77;13.65;;;;;;;17.20;100.00;97639.44;1761462;80;21959;-90
2022/08/22 08:19:42;;;;;;;20.55;12.63;;;;;;;17.26;100.00;97636.48;1730296;81;21033;-88
2022/08/22 08:22:10;;;;;;;30.77;17.32;;;;;;;17.34;100.00;97635.63;1757098;80;20973;-88
2022/08/22 08:24:38;;;;;;;27.90;16.27;;;;;;;17.41;100.00;97644.13;1728419;80;21020;-90
2022/08/22 08:30:04;;;;;;;23.00;13.15;;;;;;;17.48;100.00;97647.14;1720654;81;21293;-90
2022/08/22 08:32:33;;;;;;;28.75;14.25;;;;;;;17.60;100.00;97649.13;1740880;80;21559;-90
2022/08/22 08:35:19;;;;;;;17.60;11.38;;;;;;;17.69;100.00;97660.28;1755839;80;21093;-90
2022/08/22 08:37:53;;;;;;;23.00;12.13;;;;;;;17.76;100.00;97657.81;1755059;80;21039;-90
2022/08/22 08:40:33;;;;;;;26.07;14.95;;;;;;;17.79;100.00;97655.56;1755953;80;21024;-89
2022/08/22 08:43:28;;;;;;;20.23;12.65;;;;;;;17.85;100.00;97656.94;1753557;81;20977;-90
2022/08/22 08:46:13;;;;;;;18.75;12.10;;;;;;;17.90;100.00;97661.66;1723577;80;21020;-89
2022/08/22 08:49:22;;;;;;;15.50;9.35;;;;;;;17.94;100.00;97655.72;1747212;80;21139;-90
2022/08/22 08:52:24;;;;;;;23.92;11.85;;;;;;;17.99;100.00;97651.98;1752148;79;21674;-90
2022/08/22 08:55:22;;;;;;;21.20;15.03;;;;;;;18.13;100.00;97651.70;1687697;82;21039;-89
2022/08/22 08:58:25;;;;;;;16.62;12.10;;;;;;;18.21;100.00;97646.70;1672384;83;21076;-90
2022/08/22 09:01:27;;;;;;;18.05;14.43;;;;;;;18.25;100.00;97651.73;1688972;83;21137;-88
2022/08/22 09:04:14;;;;;;;62.40;23.47;;;;;;;18.35;100.00;97647.19;1683339;84;21155;-90
2022/08/22 09:07:00;;;;;;;31.60;16.95;;;;;;;18.56;100.00;97645.75;1687276;84;21064;-90
2022/08/22 09:09:44;;;;;;;26.48;13.90;;;;;;;18.88;100.00;97647.66;1679447;83;22122;-91
2022/08/22 09:12:37;;;;;;;22.42;11.68;;;;;;;19.20;100.00;97642.36;1689334;84;21689;-89
2022/08/22 09:15:24;;;;;;;29.70;11.55;;;;;;;19.42;100.00;97646.00;1690334;84;21060;-90
2022/08/22 09:17:58;;;;;;;13.72;6.47;;;;;;;19.63;100.00;97645.05;1686037;84;21817;-89
2022/08/22 09:20:48;;;;;;;15.78;6.10;;;;;;;19.95;100.00;97646.78;1688147;83;21033;-89
2022/08/22 09:23:31;;;;;;;10.20;5.35;;;;;;;20.19;100.00;97643.70;1671651;84;21002;-89
2022/08/22 09:26:14;;;;;;;7.28;5.35;;;;;;;20.33;100.00;97646.03;1696468;83;21103;-90
2022/08/22 09:29:03;;;;;;;8.65;5.95;;;;;;;20.31;100.00;97652.47;1681107;82;22276;-89
2022/08/22 09:31:35;;;;;;;8.08;5.78;;;;;;;20.46;100.00;97651.73;1684251;84;21075;-89
2022/08/22 09:34:28;;;;;;;12.73;7.05;;;;;;;20.25;100.00;97654.66;1684514;84;21454;-89
2022/08/22 09:37:22;;;;;;;36.20;10.85;;;;;;;20.25;100.00;97658.23;1682326;83;21582;-87
2022/08/22 09:40:05;;;;;;;19.12;9.90;;;;;;;20.13;100.00;97653.36;1663989;84;21540;-88
2022/08/22 09:42:52;;;;;;;17.17;8.90;;;;;;;20.13;100.00;97649.23;1688757;84;21016;-88
2022/08/22 09:45:26;;;;;;;21.27;10.45;;;;;;;19.98;100.00;97655.70;1647067;82;21060;-90
2022/08/22 09:48:01;;;;;;;12.35;8.75;;;;;;;19.82;100.00;97655.41;1733648;81;21037;-89
2022/08/22 09:50:33;;;;;;;18.73;10.18;;;;;;;19.65;100.00;97657.33;1711536;82;21441;-90
2022/08/22 09:53:13;;;;;;;23.45;10.75;;;;;;;19.73;100.00;97652.81;1738376;81;21072;-89
2022/08/22 09:55:56;;;;;;;50.65;14.75;;;;;;;19.75;100.00;97650.53;1750582;81;21081;-89
2022/08/22 09:59:07;;;;;;;20.45;10.03;;;;;;;19.82;100.00;97654.04;1746327;81;21284;-88
2022/08/22 10:01:44;;;;;;;23.00;10.65;;;;;;;19.80;100.00;97649.47;1700875;82;21472;-88
2022/08/22 10:04:43;;;;;;;64.65;18.77;;;;;;;19.93;100.00;97647.72;1735737;81;20986;-87
2022/08/22 10:07:38;;;;;;;17.70;8.83;;;;;;;20.00;100.00;97641.62;1687838;82;21540;-90
2022/08/22 10:10:25;;;;;;;13.48;8.30;;;;;;;20.05;100.00;97637.80;1685421;84;21032;-90
2022/08/22 10:13:22;;;;;;;11.20;7.33;;;;;;;19.90;100.00;97644.27;1691523;83;21151;-90
2022/08/22 10:16:02;;;;;;;10.57;6.53;;;;;;;20.00;100.00;97641.05;1726469;81;21340;-88
2022/08/22 10:18:49;;;;;;;9.50;6.50;;;;;;;20.03;100.00;97650.54;1746665;80;20964;-89
2022/08/22 10:21:40;;;;;;;12.15;8.08;;;;;;;20.02;100.00;97642.06;1741192;80;21048;-89
2022/08/22 10:24:23;;;;;;;12.65;8.60;;;;;;;19.96;100.00;97653.87;1741372;81;21053;-89
2022/08/22 10:26:52;;;;;;;9.55;7.20;;;;;;;19.92;100.00;97652.99;1747292;81;21305;-89
2022/08/22 10:29:42;;;;;;;10.28;7.60;;;;;;;19.90;100.00;97655.27;1729378;81;21589;-90
2022/08/22 10:32:32;;;;;;;11.22;7.62;;;;;;;19.79;100.00;97653.37;1714333;82;21566;-89
2022/08/22 10:35:09;;;;;;;8.95;7.37;;;;;;;19.83;100.00;97653.72;1689195;83;21131;-89
2022/08/22 10:38:07;;;;;;;9.75;7.22;;;;;;;19.80;100.00;97658.52;1743721;81;21088;-89
2022/08/22 10:40:42;;;;;;;10.13;8.05;;;;;;;19.76;100.00;97655.45;1747602;80;21512;-88
2022/08/22 10:43:25;;;;;;;11.05;6.95;;;;;;;19.72;100.00;97649.84;1745121;81;21001;-88
2022/08/22 10:46:02;;;;;;;10.23;7.10;;;;;;;19.70;100.00;97643.89;1743751;80;21560;-90
2022/08/22 10:48:44;;;;;;;10.18;8.23;;;;;;;19.77;100.00;97650.98;1741803;81;21017;-89
2022/08/22 10:51:16;;;;;;;10.03;7.40;;;;;;;19.77;100.00;97652.93;1749778;81;21019;-89
2022/08/22 10:53:57;;;;;;;16.27;8.20;;;;;;;19.67;100.00;97655.02;1746638;80;21067;-88
2022/08/22 10:57:08;;;;;;;12.93;8.13;;;;;;;19.72;100.00;97660.25;1747514;81;21662;-90
2022/08/22 10:59:48;;;;;;;8.80;7.00;;;;;;;19.64;100.00;97654.32;1745640;81;20923;-89
2022/08/22 11:02:37;;;;;;;7.17;5.83;;;;;;;19.55;100.00;97659.13;1711616;82;20981;-90
2022/08/22 11:05:18;;;;;;;8.13;6.10;;;;;;;19.52;100.00;97655.70;1745061;80;20986;-89
2022/08/22 11:08:05;;;;;;;6.35;5.47;;;;;;;19.60;100.00;97657.55;1744380;81;21124;-89
2022/08/22 11:11:09;;;;;;;8.28;6.15;;;;;;;19.41;100.00;97655.97;1747218;81;21108;-88
2022/08/22 11:13:53;;;;;;;6.08;5.45;;;;;;;19.55;100.00;97652.25;1750184;80;21089;-89
2022/08/22 11:16:59;;;;;;;7.75;5.90;;;;;;;19.55;100.00;97653.63;1748046;81;21366;-89
2022/08/22 11:19:40;;;;;;;7.22;5.75;;;;;;;19.64;100.00;97650.77;1747835;81;21028;-89
2022/08/22 11:23:02;;;;;;;6.92;5.28;;;;;;;19.60;100.00;97650.69;1749033;81;21481;-91
2022/08/22 11:25:40;;;;;;;8.28;6.15;;;;;;;19.55;100.00;97652.25;1754661;81;21092;-89
2022/08/22 11:28:20;;;;;;;6.50;5.75;;;;;;;19.40;100.00;97651.05;1752402;80;21080;-89
2022/08/22 11:31:20;;;;;;;10.38;8.60;;;;;;;19.43;100.00;97650.92;1755594;81;21004;-89
2022/08/22 11:34:14;;;;;;;13.18;9.45;;;;;;;19.39;100.00;97651.37;1736554;81;21064;-88
2022/08/22 11:36:55;;;;;;;9.40;8.10;;;;;;;19.45;100.00;97654.91;1760065;81;22202;-90
2022/08/22 11:39:26;;;;;;;9.60;7.83;;;;;;;19.49;100.00;97655.61;1749425;81;21014;-90
2022/08/22 11:42:13;;;;;;;9.30;8.08;;;;;;;19.56;100.00;97655.80;1739830;81;21084;-89
2022/08/22 11:44:54;;;;;;;9.43;7.90;;;;;;;19.62;100.00;97653.08;1731151;81;20980;-88
2022/08/22 11:47:25;;;;;;;10.25;8.73;;;;;;;19.67;100.00;97654.22;1735746;81;20946;-88
2022/08/22 11:50:20;;;;;;;12.58;9.45;;;;;;;19.66;100.00;97654.00;1746635;81;21947;-87
2022/08/22 11:53:12;;;;;;;13.18;9.90;;;;;;;19.80;100.00;97657.14;1743817;80;21015;-87
2022/08/22 11:55:49;;;;;;;11.85;9.28;;;;;;;19.99;100.00;97655.13;1755999;81;21103;-87
2022/08/22 11:58:32;;;;;;;11.78;9.83;;;;;;;20.08;100.00;97648.09;1745518;79;21486;-89
2022/08/22 12:01:10;;;;;;;13.45;10.43;;;;;;;20.32;100.00;97646.60;1750126;81;21060;-89
2022/08/22 12:03:53;;;;;;;11.30;9.28;;;;;;;20.50;100.00;97643.77;1747085;80;21096;-88
2022/08/22 12:06:49;;;;;;;14.07;10.53;;;;;;;20.59;100.00;97652.44;1748677;80;21067;-87
2022/08/22 12:09:30;;;;;;;12.18;10.78;;;;;;;20.59;100.00;97641.42;1751519;81;21534;-88
2022/08/22 12:12:08;;;;;;;12.35;10.85;;;;;;;20.60;100.00;97639.72;1735762;80;21043;-87
2022/08/22 12:14:55;;;;;;;14.90;11.43;;;;;;;20.55;100.00;97642.14;1749025;81;21032;-86
2022/08/22 12:17:35;;;;;;;16.23;9.78;;;;;;;20.43;100.00;97637.28;1739606;81;21104;-88
2022/08/22 12:20:37;;;;;;;16.70;10.95;;;;;;;20.46;100.00;97636.59;1725726;81;22226;-89
2022/08/22 12:23:24;;;;;;;18.37;11.48;;;;;;;20.47;100.00;97634.86;1739975;81;21030;-88
2022/08/22 12:25:59;;;;;;;13.72;10.25;;;;;;;20.39;100.00;97637.17;1733738;80;21095;-87
2022/08/22 12:28:48;;;;;;;12.45;10.70;;;;;;;20.29;100.00;97637.11;1712586;81;21033;-91
2022/08/22 12:31:34;;;;;;;13.15;10.00;;;;;;;20.18;100.00;97631.91;1746238;81;21160;-90
2022/08/22 12:34:34;;;;;;;12.35;10.05;;;;;;;20.03;100.00;97634.03;1745519;81;21068;-89
2022/08/22 12:37:14;;;;;;;16.45;9.60;;;;;;;20.08;100.00;97634.34;1743024;80;21033;-89
2022/08/22 12:39:52;;;;;;;13.22;9.73;;;;;;;20.02;100.00;97631.64;1752874;81;21576;-89